KBLI/BLI METAR and TAF weather

Enter ICAO airport designator
Station Type Date Time Source
KBLI METAR 2019/05/25 08:53 UTC NOAA

KBLI 250853Z AUTO 17008KT 10SM FEW012 SCT039 OVC049 13/10 A2995 RMK AO2 SLP148 T01330100 50001


Station Type Date Time Source
KBLI Decoded METAR 2019/05/25 08:53 UTC NOAA

BELLINGHAM INTERNATIONAL AIRPORT, WA, United States (KBLI) 48-48N 122-32W 50M
May 25, 2019 - 04:53 AM EDT / 2019.05.25 0853 UTC
Wind: from the S (170 degrees) at 9 MPH (8 KT):0
Visibility: 10 mile(s):0
Sky conditions: overcast
Temperature: 55.9 F (13.3 C)
Dew Point: 50.0 F (10.0 C)
Relative Humidity: 80%
Pressure (altimeter): 29.95 in. Hg (1014 hPa)
Pressure tendency: 0.00 inches (0.1 hPa) higher than three hours ago
ob: KBLI 250853Z AUTO 17008KT 10SM FEW012 SCT039 OVC049 13/10 A2995 RMK AO2 SLP148 T01330100 50001
cycle: 9

Station Type Date Time Source
KBLI TAF 2019/05/25 06:24 UTC NOAA

TAF KBLI 250520Z 2506/2606 18006KT P6SM SCT030 OVC060
FM251200 18010KT P6SM BKN025 OVC040
FM251600 18012G17KT P6SM -RA OVC022
FM252200 17009KT P6SM VCSH BKN022 BKN040
FM260300 VRB05KT P6SM BKN040 BKN080

Example: see airport list